createdAt,value
2017-08-18T00:00:37.986Z,89.60
2017-08-18T00:03:06.332Z,89.40
2017-08-18T00:05:34.051Z,89.40
2017-08-18T00:08:01.666Z,89.10
2017-08-18T00:10:31.344Z,88.80
2017-08-18T00:12:59.800Z,88.70
2017-08-18T00:15:28.336Z,89.10
2017-08-18T00:17:56.869Z,89.40
2017-08-18T00:20:39.388Z,89.10
2017-08-18T00:23:11.809Z,89.20
2017-08-18T00:25:42.997Z,90.00
2017-08-18T00:28:12.185Z,89.50
2017-08-18T00:30:42.297Z,89.60
2017-08-18T00:33:10.209Z,89.90
2017-08-18T00:35:37.841Z,90.00
2017-08-18T00:38:05.475Z,90.10
2017-08-18T00:40:33.763Z,90.30
2017-08-18T00:46:03.965Z,90.30
2017-08-18T00:48:31.836Z,90.30
2017-08-18T00:50:59.664Z,90.40
2017-08-18T00:53:27.204Z,90.40
2017-08-18T00:55:54.800Z,90.40
2017-08-18T00:58:22.471Z,90.50
2017-08-18T01:00:50.491Z,90.30
2017-08-18T01:03:18.829Z,90.20
2017-08-18T01:05:46.463Z,90.20
2017-08-18T01:08:13.960Z,90.10
2017-08-18T01:10:41.525Z,90.20
2017-08-18T01:13:09.001Z,90.20
2017-08-18T01:15:37.434Z,90.40
2017-08-18T01:18:05.239Z,90.30
2017-08-18T01:20:32.787Z,90.30
2017-08-18T01:23:00.364Z,90.60
2017-08-18T01:25:28.083Z,90.30
2017-08-18T01:27:56.037Z,90.30
2017-08-18T01:30:23.779Z,90.20
2017-08-18T01:32:51.468Z,90.20
2017-08-18T01:35:19.287Z,90.20
2017-08-18T01:37:47.828Z,90.40
2017-08-18T01:40:15.748Z,90.10
2017-08-18T01:42:44.218Z,89.50
2017-08-18T01:45:13.185Z,89.50
2017-08-18T01:47:40.874Z,89.40
2017-08-18T01:50:08.606Z,89.20
2017-08-18T01:52:36.197Z,89.30
2017-08-18T01:55:04.882Z,89.40
2017-08-18T01:57:32.780Z,89.40
2017-08-18T02:00:00.625Z,89.50
2017-08-18T02:02:28.233Z,89.50
2017-08-18T02:04:55.942Z,89.30
2017-08-18T02:07:37.033Z,89.00
2017-08-18T02:10:08.901Z,89.20
2017-08-18T02:12:37.683Z,89.40
2017-08-18T02:15:06.371Z,89.60
2017-08-18T02:17:36.022Z,89.80
2017-08-18T02:20:03.679Z,89.80
2017-08-18T02:22:41.542Z,89.90
2017-08-18T02:25:09.087Z,90.00
2017-08-18T02:27:36.770Z,90.00
2017-08-18T02:30:04.423Z,90.00
2017-08-18T02:32:39.020Z,90.00
2017-08-18T02:35:08.975Z,89.90
2017-08-18T02:37:36.603Z,89.80
2017-08-18T02:40:04.425Z,89.80
2017-08-18T02:42:31.953Z,89.70
2017-08-18T02:44:59.642Z,90.00
2017-08-18T02:47:27.903Z,90.00
2017-08-18T02:49:56.279Z,90.10
2017-08-18T02:52:23.820Z,90.10
2017-08-18T02:54:51.384Z,90.40
2017-08-18T02:57:18.956Z,90.30
2017-08-18T02:59:46.446Z,90.40
2017-08-18T03:02:14.091Z,90.30
2017-08-18T03:04:42.587Z,90.40
2017-08-18T03:07:10.577Z,90.40
2017-08-18T03:09:38.714Z,90.40
2017-08-18T03:12:06.270Z,90.30
2017-08-18T03:14:39.631Z,90.30
2017-08-18T03:17:07.899Z,90.30
2017-08-18T03:19:35.584Z,90.30
2017-08-18T03:22:03.273Z,90.40
2017-08-18T03:24:31.139Z,90.50
2017-08-18T03:26:58.804Z,90.70
2017-08-18T03:29:26.266Z,90.80
2017-08-18T03:31:55.040Z,90.90
2017-08-18T03:34:22.640Z,90.90
2017-08-18T03:36:50.415Z,91.00
2017-08-18T03:39:18.200Z,90.90
2017-08-18T03:41:45.798Z,90.70
2017-08-18T03:44:13.413Z,90.60
2017-08-18T03:46:41.230Z,90.60
2017-08-18T03:49:08.882Z,90.60
2017-08-18T03:51:37.103Z,90.50
2017-08-18T03:54:04.727Z,90.40
2017-08-18T03:56:32.427Z,90.40
2017-08-18T03:58:59.939Z,90.60
2017-08-18T04:01:27.853Z,90.70
2017-08-18T04:03:55.370Z,90.80
2017-08-18T04:06:23.256Z,90.80
2017-08-18T04:08:51.710Z,91.10
2017-08-18T04:11:19.314Z,91.10
2017-08-18T04:13:47.650Z,91.40
2017-08-18T04:16:15.215Z,91.40
2017-08-18T04:18:42.947Z,91.40
2017-08-18T04:21:10.546Z,91.30
2017-08-18T04:23:39.633Z,91.40
2017-08-18T04:26:07.646Z,91.50
2017-08-18T04:28:35.407Z,91.40
2017-08-18T04:31:03.892Z,91.20
2017-08-18T04:33:31.542Z,91.20
2017-08-18T04:35:59.212Z,91.20
2017-08-18T04:38:27.525Z,91.00
2017-08-18T04:40:55.110Z,91.00
2017-08-18T04:43:22.749Z,90.90
2017-08-18T04:45:50.424Z,90.80
2017-08-18T04:48:19.745Z,90.80
2017-08-18T04:50:47.592Z,90.70
2017-08-18T04:53:16.479Z,90.60
2017-08-18T04:55:46.187Z,90.60
2017-08-18T04:58:14.209Z,90.40
2017-08-18T05:00:42.963Z,90.20
2017-08-18T05:06:00.687Z,89.90
2017-08-18T05:08:28.144Z,88.90
2017-08-18T05:10:55.587Z,88.40
2017-08-18T05:13:23.038Z,88.30
2017-08-18T05:15:50.483Z,88.30
2017-08-18T05:18:18.698Z,87.90
2017-08-18T05:20:46.258Z,87.80
2017-08-18T05:23:13.824Z,87.90
2017-08-18T05:25:41.481Z,87.80
2017-08-18T05:28:09.023Z,87.90
2017-08-18T05:30:36.552Z,87.80
2017-08-18T05:33:04.024Z,87.50
2017-08-18T05:35:32.428Z,86.30
2017-08-18T05:37:59.949Z,86.30
2017-08-18T05:40:27.520Z,85.90
2017-08-18T05:42:54.998Z,85.60
2017-08-18T05:45:23.247Z,84.70
2017-08-18T05:47:51.553Z,84.60
2017-08-18T05:50:19.027Z,84.10
2017-08-18T05:52:46.506Z,83.60
2017-08-18T05:55:13.995Z,83.50
2017-08-18T05:57:41.454Z,82.90
2017-08-18T06:00:08.895Z,83.30
2017-08-18T06:02:36.357Z,82.00
2017-08-18T06:05:03.794Z,81.00
2017-08-18T06:07:31.235Z,79.90
2017-08-18T06:09:58.683Z,78.20
2017-08-18T06:12:26.127Z,76.90
2017-08-18T06:14:53.566Z,75.80
2017-08-18T06:17:21.017Z,74.70
2017-08-18T06:19:48.463Z,75.10
2017-08-18T06:22:15.932Z,73.50
2017-08-18T06:24:43.366Z,69.80
2017-08-18T06:27:10.844Z,64.30
2017-08-18T06:29:38.272Z,58.30
2017-08-18T06:32:05.715Z,55.70
2017-08-18T06:34:33.159Z,54.90
2017-08-18T06:37:00.602Z,53.10
2017-08-18T06:39:28.805Z,50.30
2017-08-18T06:41:56.256Z,50.20
2017-08-18T06:44:23.693Z,49.90
2017-08-18T06:46:51.919Z,48.00
2017-08-18T06:49:19.370Z,47.40
2017-08-18T06:51:46.804Z,47.20
2017-08-18T06:54:14.266Z,46.40
2017-08-18T06:56:41.708Z,46.90
2017-08-18T06:59:09.902Z,46.30
2017-08-18T07:01:37.339Z,46.30
2017-08-18T07:04:04.786Z,46.10
2017-08-18T07:06:32.987Z,46.70
2017-08-18T07:09:00.428Z,46.60
2017-08-18T07:11:27.863Z,48.20
2017-08-18T07:13:55.298Z,48.70
2017-08-18T07:16:22.748Z,49.40
2017-08-18T07:18:50.194Z,50.30
2017-08-18T07:21:17.647Z,50.60
2017-08-18T07:23:45.093Z,50.00
2017-08-18T07:26:12.549Z,49.30
2017-08-18T07:28:39.989Z,48.60
2017-08-18T07:31:07.438Z,48.60
2017-08-18T07:33:34.927Z,49.10
2017-08-18T07:36:02.370Z,50.10
2017-08-18T07:38:29.827Z,50.90
2017-08-18T07:40:57.263Z,50.80
2017-08-18T07:43:25.471Z,49.30
2017-08-18T07:45:52.903Z,49.30
2017-08-18T07:48:21.118Z,47.90
2017-08-18T07:50:48.570Z,47.90
2017-08-18T07:53:16.004Z,47.90
2017-08-18T07:55:43.459Z,49.10
2017-08-18T07:58:11.655Z,50.90
2017-08-18T08:00:39.098Z,50.90
2017-08-18T08:03:06.558Z,49.80
2017-08-18T08:05:34.004Z,49.80
2017-08-18T08:08:02.260Z,48.20
2017-08-18T08:10:29.707Z,48.20
2017-08-18T08:12:57.139Z,49.00
2017-08-18T08:15:24.575Z,47.60
2017-08-18T08:17:52.007Z,48.00
2017-08-18T08:20:20.211Z,47.20
2017-08-18T08:22:47.658Z,47.20
2017-08-18T08:25:15.095Z,45.00
2017-08-18T08:27:42.547Z,44.70
2017-08-18T08:30:09.975Z,44.20
2017-08-18T08:32:37.414Z,44.90
2017-08-18T08:35:04.854Z,44.90
2017-08-18T08:37:32.306Z,45.70
2017-08-18T08:39:59.743Z,45.80
2017-08-18T08:42:27.949Z,47.30
2017-08-18T08:44:55.392Z,47.30
2017-08-18T08:47:22.829Z,47.90
2017-08-18T08:49:51.035Z,48.20
2017-08-18T08:52:18.476Z,48.20
2017-08-18T08:54:46.676Z,49.20
2017-08-18T08:57:14.119Z,49.20
2017-08-18T08:59:41.567Z,49.70
2017-08-18T09:02:09.013Z,50.10
2017-08-18T09:04:37.251Z,51.10
2017-08-18T09:07:04.695Z,50.80
2017-08-18T09:09:32.152Z,52.00
2017-08-18T09:11:59.587Z,53.70
2017-08-18T09:14:27.051Z,52.20
2017-08-18T09:16:54.491Z,50.80
2017-08-18T09:19:21.938Z,51.40
2017-08-18T09:21:50.159Z,51.10
2017-08-18T09:24:17.586Z,51.10
2017-08-18T09:26:54.978Z,49.60
2017-08-18T09:29:22.411Z,49.30
2017-08-18T09:31:50.840Z,49.00
2017-08-18T09:34:18.298Z,48.60
2017-08-18T09:36:45.736Z,49.00
2017-08-18T09:39:13.175Z,48.30
2017-08-18T09:41:41.374Z,48.00
2017-08-18T09:44:08.830Z,48.10
2017-08-18T09:46:36.267Z,49.50
2017-08-18T09:49:16.432Z,50.80
2017-08-18T09:51:56.595Z,51.20
2017-08-18T09:54:35.910Z,51.20
2017-08-18T09:57:15.964Z,49.90
2017-08-18T09:59:43.395Z,49.80
2017-08-18T10:02:10.822Z,51.20
2017-08-18T10:04:38.272Z,50.30
2017-08-18T10:07:05.719Z,50.10
2017-08-18T10:09:33.146Z,51.00
2017-08-18T10:12:01.351Z,51.70
2017-08-18T10:14:28.787Z,51.70
2017-08-18T10:16:57.006Z,52.10
2017-08-18T10:19:24.444Z,52.10
2017-08-18T10:21:51.870Z,52.50
2017-08-18T10:24:19.311Z,52.00
2017-08-18T10:26:46.754Z,52.20
2017-08-18T10:29:14.182Z,53.00
2017-08-18T10:31:41.631Z,51.40
2017-08-18T10:34:09.059Z,52.00
2017-08-18T10:36:36.497Z,50.30
2017-08-18T10:39:03.938Z,50.80
2017-08-18T10:41:31.375Z,48.90
2017-08-18T10:43:58.814Z,49.10
2017-08-18T10:46:26.255Z,47.80
2017-08-18T10:48:53.712Z,48.10
2017-08-18T10:51:21.912Z,48.70
2017-08-18T10:53:49.351Z,48.60
2017-08-18T10:56:16.815Z,48.10
2017-08-18T10:58:44.260Z,46.60
2017-08-18T11:01:12.475Z,45.40
2017-08-18T11:03:39.902Z,44.80
2017-08-18T11:06:08.113Z,44.20
2017-08-18T11:08:35.547Z,44.20
2017-08-18T11:11:03.000Z,44.50
2017-08-18T11:13:31.214Z,43.80
2017-08-18T11:15:58.652Z,43.80
2017-08-18T11:18:26.083Z,44.80
2017-08-18T11:20:54.288Z,47.00
2017-08-18T11:23:21.723Z,47.10
2017-08-18T11:25:49.934Z,45.60
2017-08-18T11:28:17.366Z,45.60
2017-08-18T11:30:44.810Z,45.80
2017-08-18T11:33:13.007Z,46.00
2017-08-18T11:35:40.436Z,46.00
2017-08-18T11:38:07.881Z,46.00
2017-08-18T11:40:35.339Z,46.70
2017-08-18T11:43:02.805Z,48.00
2017-08-18T11:45:31.003Z,45.60
2017-08-18T11:47:58.443Z,45.60
2017-08-18T11:50:25.891Z,47.50
2017-08-18T11:52:53.318Z,47.20
2017-08-18T11:55:20.767Z,47.20
2017-08-18T11:57:48.208Z,48.20
2017-08-18T12:00:15.642Z,48.00
2017-08-18T12:02:43.074Z,49.00
2017-08-18T12:05:10.515Z,48.20
2017-08-18T12:07:37.963Z,50.10
2017-08-18T12:10:05.423Z,49.70
2017-08-18T12:12:32.884Z,48.60
2017-08-18T12:15:00.354Z,47.40
2017-08-18T12:17:27.787Z,47.20
2017-08-18T12:19:55.235Z,48.20
2017-08-18T12:22:22.689Z,47.50
2017-08-18T12:24:50.153Z,47.30
2017-08-18T12:27:17.579Z,48.10
2017-08-18T12:29:45.011Z,46.90
2017-08-18T12:32:12.459Z,47.80
2017-08-18T12:34:39.899Z,47.30
2017-08-18T12:37:07.355Z,46.60
2017-08-18T12:39:34.790Z,46.40
2017-08-18T12:42:02.228Z,47.30
2017-08-18T12:44:29.667Z,47.50
2017-08-18T12:46:57.110Z,47.20
2017-08-18T12:49:24.614Z,46.50
2017-08-18T12:51:52.052Z,46.10
2017-08-18T12:54:19.512Z,47.90
2017-08-18T12:56:46.955Z,47.30
2017-08-18T12:59:14.397Z,48.90
2017-08-18T13:01:42.614Z,47.40
2017-08-18T13:04:10.064Z,47.30
2017-08-18T13:06:37.507Z,45.70
2017-08-18T13:09:04.947Z,47.00
2017-08-18T13:11:32.394Z,47.10
2017-08-18T13:14:00.628Z,47.00
2017-08-18T13:16:28.105Z,47.00
2017-08-18T13:18:55.543Z,46.80
2017-08-18T13:21:22.992Z,48.20
2017-08-18T13:23:50.451Z,47.00
2017-08-18T13:26:17.919Z,47.20
2017-08-18T13:28:45.359Z,47.40
2017-08-18T13:31:12.802Z,47.10
2017-08-18T13:33:40.252Z,46.80
2017-08-18T13:36:07.691Z,46.10
2017-08-18T13:38:35.167Z,46.20
2017-08-18T13:41:02.607Z,46.10
2017-08-18T13:43:30.043Z,45.90
2017-08-18T13:45:57.487Z,46.50
2017-08-18T13:48:25.691Z,46.40
2017-08-18T13:50:53.135Z,46.40
2017-08-18T13:53:20.566Z,46.00
2017-08-18T13:55:48.775Z,46.30
2017-08-18T13:58:16.287Z,45.80
2017-08-18T14:00:43.710Z,46.80
2017-08-18T14:03:11.204Z,45.40
2017-08-18T14:05:38.638Z,45.20
2017-08-18T14:08:06.071Z,45.60
2017-08-18T14:10:33.536Z,45.40
2017-08-18T14:13:00.959Z,45.50
2017-08-18T14:15:29.207Z,45.20
2017-08-18T14:17:56.658Z,45.20
2017-08-18T14:20:24.093Z,45.60
2017-08-18T14:22:51.534Z,45.60
2017-08-18T14:28:21.928Z,45.00
2017-08-18T14:30:49.348Z,45.80
2017-08-18T14:33:16.786Z,45.20
2017-08-18T14:35:44.235Z,45.00
2017-08-18T14:38:12.458Z,46.30
2017-08-18T14:40:39.902Z,46.30
2017-08-18T14:43:07.335Z,46.20
2017-08-18T14:45:34.785Z,46.10
2017-08-18T14:48:02.991Z,45.60
2017-08-18T14:50:30.451Z,45.60
2017-08-18T14:52:57.883Z,45.80
2017-08-18T14:55:25.315Z,45.30
2017-08-18T14:57:53.531Z,46.10
2017-08-18T15:00:20.963Z,45.60
2017-08-18T15:02:49.167Z,46.60
2017-08-18T15:05:16.602Z,46.60
2017-08-18T15:07:44.054Z,47.00
2017-08-18T15:10:12.264Z,46.40
2017-08-18T15:12:39.707Z,46.40
2017-08-18T15:15:07.151Z,46.50
2017-08-18T15:17:34.592Z,46.40
2017-08-18T15:20:02.828Z,47.60
2017-08-18T15:22:30.258Z,47.00
2017-08-18T15:24:57.704Z,46.90
2017-08-18T15:27:25.142Z,46.50
2017-08-18T15:29:53.343Z,47.70
2017-08-18T15:32:20.803Z,47.60
2017-08-18T15:34:48.235Z,48.00
2017-08-18T15:37:16.466Z,47.30
2017-08-18T15:39:43.914Z,48.00
2017-08-18T15:42:11.347Z,48.10
2017-08-18T15:44:38.790Z,47.70
2017-08-18T15:47:06.988Z,48.20
2017-08-18T15:49:34.430Z,48.20
2017-08-18T15:52:02.635Z,48.80
2017-08-18T15:54:30.071Z,48.70
2017-08-18T15:56:57.515Z,49.10
2017-08-18T15:59:25.715Z,48.10
2017-08-18T16:01:53.158Z,48.10
2017-08-18T16:04:20.595Z,47.30
2017-08-18T16:06:48.031Z,47.90
2017-08-18T16:09:15.470Z,48.20
2017-08-18T16:11:42.915Z,47.50
2017-08-18T16:14:10.355Z,49.20
2017-08-18T16:16:37.801Z,49.40
2017-08-18T16:19:06.022Z,48.40
2017-08-18T16:21:33.467Z,48.30
2017-08-18T16:24:00.890Z,48.20
2017-08-18T16:26:29.099Z,48.60
2017-08-18T16:28:56.542Z,48.50
2017-08-18T16:31:24.013Z,48.90
2017-08-18T16:33:51.494Z,48.50
2017-08-18T16:36:18.955Z,48.40
2017-08-18T16:38:46.401Z,48.30
2017-08-18T16:41:13.840Z,48.90
2017-08-18T16:43:41.278Z,48.90
2017-08-18T16:46:08.715Z,50.00
2017-08-18T16:48:36.943Z,50.10
2017-08-18T16:51:04.382Z,49.50
2017-08-18T16:53:31.819Z,49.40
2017-08-18T16:55:59.280Z,49.50
2017-08-18T16:58:26.711Z,50.10
2017-08-18T17:00:54.155Z,50.00
2017-08-18T17:03:21.599Z,49.90
2017-08-18T17:05:49.040Z,49.50
2017-08-18T17:08:16.489Z,50.10
2017-08-18T17:10:43.943Z,50.50
2017-08-18T17:13:11.379Z,51.50
2017-08-18T17:15:39.603Z,51.50
2017-08-18T17:18:07.052Z,51.50
2017-08-18T17:20:34.486Z,52.00
2017-08-18T17:23:01.928Z,52.00
2017-08-18T17:25:30.144Z,52.90
2017-08-18T17:27:57.590Z,52.90
2017-08-18T17:30:25.055Z,53.10
2017-08-18T17:32:52.499Z,53.50
2017-08-18T17:35:19.942Z,53.40
2017-08-18T17:37:48.152Z,54.40
2017-08-18T17:40:15.621Z,54.50
2017-08-18T17:42:43.052Z,54.60
2017-08-18T17:45:10.489Z,54.80
2017-08-18T17:47:38.698Z,55.30
2017-08-18T17:50:06.140Z,55.30
2017-08-18T17:52:33.596Z,55.50
2017-08-18T17:55:01.056Z,55.80
2017-08-18T17:57:28.519Z,56.00
2017-08-18T17:59:55.952Z,56.60
2017-08-18T18:02:24.156Z,57.40
2017-08-18T18:04:51.596Z,57.40
2017-08-18T18:07:19.044Z,58.00
2017-08-18T18:09:46.482Z,58.50
2017-08-18T18:12:13.923Z,58.70
2017-08-18T18:14:41.368Z,59.00
2017-08-18T18:17:08.807Z,59.70
2017-08-18T18:19:36.257Z,60.00
2017-08-18T18:22:03.703Z,60.40
2017-08-18T18:24:31.157Z,60.90
2017-08-18T18:26:58.591Z,61.20
2017-08-18T18:29:26.815Z,61.60
2017-08-18T18:31:54.259Z,61.60
2017-08-18T18:34:21.707Z,62.20
2017-08-18T18:36:49.926Z,63.50
2017-08-18T18:39:17.411Z,63.50
2017-08-18T18:41:44.863Z,63.40
2017-08-18T18:44:12.326Z,63.80
2017-08-18T18:46:39.767Z,64.50
2017-08-18T18:49:07.190Z,64.80
2017-08-18T18:51:34.657Z,64.80
2017-08-18T18:54:02.127Z,64.10
2017-08-18T18:56:29.568Z,62.40
2017-08-18T18:58:57.019Z,58.70
2017-08-18T19:01:24.476Z,59.10
2017-08-18T19:03:51.912Z,61.40
2017-08-18T19:06:20.128Z,65.00
2017-08-18T19:08:47.563Z,65.00
2017-08-18T19:11:15.008Z,66.50
2017-08-18T19:13:42.451Z,69.10
2017-08-18T19:16:09.890Z,73.00
2017-08-18T19:18:37.323Z,83.40
2017-08-18T19:21:04.763Z,91.30
2017-08-18T19:23:32.199Z,93.10
2017-08-18T19:25:59.646Z,93.30
2017-08-18T19:28:27.850Z,95.10
2017-08-18T19:30:55.322Z,95.10
2017-08-18T19:33:22.762Z,96.00
2017-08-18T19:35:50.205Z,96.70
2017-08-18T19:38:17.655Z,97.80
2017-08-18T19:40:45.863Z,98.90
2017-08-18T19:43:13.294Z,98.90
2017-08-18T19:45:40.740Z,99.90
2017-08-18T19:48:08.178Z,99.90
2017-08-18T19:50:35.619Z,99.90
2017-08-18T19:53:03.075Z,99.90
2017-08-18T19:55:30.519Z,99.90
2017-08-18T19:57:58.606Z,98.80
2017-08-18T20:00:28.189Z,98.10
2017-08-18T20:05:33.448Z,98.90
2017-08-18T20:08:01.520Z,98.70
2017-08-18T20:13:26.028Z,99.90
2017-08-18T20:15:54.631Z,99.90
2017-08-18T20:18:23.726Z,99.90
2017-08-18T20:23:58.274Z,99.90
2017-08-18T20:26:27.141Z,99.90
2017-08-18T20:29:05.576Z,99.90
2017-08-18T20:31:42.025Z,99.90
2017-08-18T20:34:11.120Z,99.90
2017-08-18T20:39:35.747Z,99.90
2017-08-18T20:42:04.212Z,99.90
2017-08-18T20:44:33.616Z,99.90
2017-08-18T20:47:01.891Z,99.90
2017-08-18T20:49:33.515Z,99.90
2017-08-18T20:52:12.222Z,99.90
2017-08-18T20:54:44.350Z,99.90
2017-08-18T20:57:31.893Z,99.90
2017-08-18T21:00:03.225Z,99.90
2017-08-18T21:02:31.910Z,99.90
2017-08-18T21:08:03.675Z,99.90
2017-08-18T21:16:33.711Z,99.90
2017-08-18T21:19:01.864Z,99.90
2017-08-18T21:21:30.262Z,99.90
2017-08-18T21:23:59.802Z,99.90
2017-08-18T21:26:32.278Z,99.90
2017-08-18T21:29:03.934Z,99.90
2017-08-18T21:31:32.631Z,99.90
2017-08-18T21:34:00.100Z,99.90
2017-08-18T21:36:27.580Z,99.90
2017-08-18T21:38:55.042Z,99.90
2017-08-18T21:41:22.597Z,99.90
2017-08-18T21:43:50.048Z,99.90
2017-08-18T21:46:17.538Z,99.90
2017-08-18T21:48:44.975Z,99.90
2017-08-18T21:51:12.419Z,99.90
2017-08-18T21:53:39.863Z,99.90
2017-08-18T21:56:07.306Z,99.90
2017-08-18T21:58:34.748Z,99.90
2017-08-18T22:01:02.203Z,99.90
2017-08-18T22:03:30.406Z,99.90
2017-08-18T22:05:57.858Z,99.90
2017-08-18T22:08:25.303Z,99.90
2017-08-18T22:10:52.757Z,99.90
2017-08-18T22:13:20.967Z,99.90
2017-08-18T22:15:48.416Z,99.90
2017-08-18T22:18:15.910Z,99.90
2017-08-18T22:20:43.363Z,99.90
2017-08-18T22:23:10.807Z,99.90
2017-08-18T22:25:38.265Z,99.90
2017-08-18T22:28:05.714Z,99.90
2017-08-18T22:30:33.150Z,99.90
2017-08-18T22:33:00.595Z,99.90
2017-08-18T22:35:28.035Z,99.90
2017-08-18T22:37:56.246Z,99.90
2017-08-18T22:40:23.696Z,99.90
2017-08-18T22:42:51.156Z,99.90
2017-08-18T22:45:18.611Z,99.90
2017-08-18T22:47:46.072Z,99.90
2017-08-18T22:50:13.530Z,99.90
2017-08-18T22:52:41.005Z,99.90
2017-08-18T22:55:08.463Z,99.90
2017-08-18T22:57:35.911Z,99.90
2017-08-18T23:00:03.385Z,99.90
2017-08-18T23:02:30.831Z,99.90
2017-08-18T23:04:58.279Z,99.90
2017-08-18T23:07:25.755Z,99.90
2017-08-18T23:09:53.225Z,99.90
2017-08-18T23:12:20.674Z,99.90
2017-08-18T23:14:48.220Z,99.90
2017-08-18T23:17:15.743Z,99.90
2017-08-18T23:19:43.199Z,99.90
2017-08-18T23:22:11.455Z,99.90
2017-08-18T23:24:38.942Z,99.90
2017-08-18T23:27:07.183Z,99.90
2017-08-18T23:29:34.670Z,99.90
2017-08-18T23:32:02.143Z,99.90
2017-08-18T23:34:30.373Z,99.90
2017-08-18T23:36:57.836Z,99.90
2017-08-18T23:39:25.289Z,99.90
2017-08-18T23:41:52.722Z,99.90
2017-08-18T23:44:20.176Z,99.90
2017-08-18T23:46:47.624Z,99.90
2017-08-18T23:49:15.066Z,99.90
2017-08-18T23:51:43.275Z,99.90
2017-08-18T23:54:10.718Z,99.90
2017-08-18T23:56:38.162Z,99.90
2017-08-18T23:59:05.603Z,99.90
